Terminal Aerodrome Forecast
Issued by NWS Wakefield, VA

Home | Current Version | Previous Version | Text Only | Print | Product List | Glossary On
Versions: 1 2 3 4 5 6 7 8 9 10 11 12 13 14 15 16 17 18 19 20
584
FTUS41 KAKQ 170803 AAA
TAFRIC
TAF AMD
KRIC 170803Z 1708/1806 VRB04KT P6SM FEW006 OVC010
      TEMPO 1708/1712 5SM BR BKN006
     FM171200 VRB03KT 4SM BR VCSH OVC010
     FM171600 20006KT 4SM -RA BR OVC008
     FM172000 20008KT P6SM OVC015=

USA.gov is the U.S. government's official web portal to all federal, state and local government web resources and services.